X_preSS Matterhorn — PBHI — position and weather

sailwx.info

Track history (hours):
 
Tides and Currents Weather Stations Pressure Air Temp Water Temp Dewpoint Dewpoint Depression Visibility Wind Speed Wind Dir Waves Ship Positions

X_preSS Matterhorn

Last reported at 2018-Feb-17 19:30 UTC. Time now 2018-Feb-17 19:52 UTC.
Position N 51°26' W 002°59'.

Length 134 m; draft 5.9 m.

Type: Cargo ship. MMSI: 244597000.

Date/timePositionNaut miles runAvg speedWind from/ knotsBaromVisibWave heightAir tempDewpointWater temp
2018-Feb-17 19:30N 51°26' W 002°59'611.9
2018-Feb-17 19:00N 51°28' W 002°50'5 9.7
2018-Feb-17 18:30N 51°30' W 002°43'0 0.8
2018-Feb-17 17:58N 51°30' W 002°42'0 0.6
2018-Feb-17 17:28N 51°31' W 002°42'0 0.0
2018-Feb-17 16:58N 51°31' W 002°42'0 0.0
2018-Feb-17 16:31N 51°31' W 002°42'0 0.0
2018-Feb-17 16:01N 51°31' W 002°42'0 0.0
2018-Feb-17 15:30N 51°31' W 002°42'0 0.0
2018-Feb-17 15:00N 51°31' W 002°42'0 0.0
2018-Feb-17 14:30N 51°31' W 002°42'0 0.0
2018-Feb-17 14:00N 51°31' W 002°42'0 0.0
2018-Feb-17 13:30N 51°31' W 002°42'0 0.0
2018-Feb-17 13:00N 51°31' W 002°42'0 0.0
2018-Feb-17 12:30N 51°31' W 002°42'0 0.0
2018-Feb-17 12:00N 51°31' W 002°42'0 0.0
2018-Feb-17 11:30N 51°31' W 002°42'0 0.0
2018-Feb-17 11:00N 51°31' W 002°42'0 0.0
2018-Feb-17 10:30N 51°31' W 002°42'0 0.0
2018-Feb-17 10:00N 51°31' W 002°42'0 0.0
2018-Feb-17 09:30N 51°31' W 002°42'0 0.0
2018-Feb-17 09:00N 51°31' W 002°42'0 0.0
2018-Feb-17 08:30N 51°31' W 002°42'0 0.0
2018-Feb-17 08:00N 51°31' W 002°42'0 0.9
2018-Feb-17 07:30N 51°30' W 002°43'0 0.9
2018-Feb-17 07:00N 51°31' W 002°43'612.0
2018-Feb-17 06:30N 51°28' W 002°52'815.4
2018-Feb-17 06:00N 51°24' W 003°03'815.5
2018-Feb-17 05:30N 51°21' W 003°14'22 2.4
2018-Feb-16 20:23N 51°20' W 003°49'410.1
2018-Feb-16 19:57N 51°21' W 003°55'510.8
2018-Feb-16 19:30N 51°22' W 004°03'1512.7
2018-Feb-16 18:21N 51°25' W 004°26'713.8
2018-Feb-16 17:50N 51°27' W 004°37'515.6
2018-Feb-16 17:30N 51°28' W 004°45'815.9
2018-Feb-16 16:59N 51°29' W 004°58'715.8
2018-Feb-16 16:30N 51°31' W 005°10'815.8
2018-Feb-16 16:01N 51°33' W 005°22'815.9
2018-Feb-16 15:30N 51°35' W 005°35'3711.9
2018-Feb-16 12:25N 52°11' W 005°42'614.8
2018-Feb-16 12:00N 52°17' W 005°38'814.4
2018-Feb-16 11:28N 52°24' W 005°34'1813.6
2018-Feb-16 10:09N 52°41' W 005°23'212.3
2018-Feb-16 09:58N 52°43' W 005°22'7010.6
2018-Feb-16 03:17N 53°31' W 003°57'714.8
2018-Feb-16 02:51N 53°33' W 003°46'615.2
2018-Feb-16 02:27N 53°33' W 003°36'715.0
2018-Feb-16 02:00N 53°32' W 003°25'714.5
2018-Feb-16 01:30N 53°31' W 003°13'612.0
2018-Feb-16 01:00N 53°29' W 003°04'2 4.4
2018-Feb-16 00:30N 53°27' W 003°01'0 0.8
2018-Feb-16 00:00N 53°27' W 003°01'0 0.4
2018-Feb-15 23:20N 53°28' W 003°01'0 0.0
2018-Feb-15 22:59N 53°28' W 003°01'0 0.0
2018-Feb-15 22:29N 53°28' W 003°01'0 0.0
2018-Feb-15 21:59N 53°28' W 003°01'0 0.0
2018-Feb-15 21:29N 53°28' W 003°01'0 0.0
2018-Feb-15 20:59N 53°28' W 003°01'0 0.0
2018-Feb-15 20:29N 53°28' W 003°01'0 0.0
2018-Feb-15 19:59N 53°28' W 003°01'0 0.0
2018-Feb-15 19:26N 53°28' W 003°01'0 0.0
2018-Feb-15 18:59N 53°28' W 003°01'0 0.0
2018-Feb-15 18:29N 53°28' W 003°01'0 0.0
2018-Feb-15 17:56N 53°28' W 003°01'0 0.0
2018-Feb-15 17:23N 53°28' W 003°01'0 0.0
2018-Feb-15 16:59N 53°28' W 003°01'0 0.0
2018-Feb-15 16:29N 53°28' W 003°01'0 0.0
2018-Feb-15 15:59N 53°28' W 003°01'0 0.0
2018-Feb-15 15:29N 53°28' W 003°01'0 0.0
2018-Feb-15 14:59N 53°28' W 003°01'0 0.0
2018-Feb-15 14:29N 53°28' W 003°01'0 0.0
2018-Feb-15 13:59N 53°28' W 003°01'0 0.0
2018-Feb-15 13:29N 53°28' W 003°01'0 0.0
2018-Feb-15 12:59N 53°28' W 003°01'0 0.0
2018-Feb-15 12:29N 53°28' W 003°01'0 0.0
2018-Feb-15 11:59N 53°28' W 003°01'0 0.0
2018-Feb-15 11:26N 53°28' W 003°01'0 0.0
2018-Feb-15 10:59N 53°28' W 003°01'0 0.0
2018-Feb-15 10:29N 53°28' W 003°01'0 0.0
2018-Feb-15 09:59N 53°28' W 003°01'0 0.0
2018-Feb-15 09:28N 53°28' W 003°01'0 0.0
2018-Feb-15 09:00N 53°28' W 003°01'1 1.3
2018-Feb-15 08:30N 53°27' W 003°01'0 0.3
2018-Feb-15 07:59N 53°27' W 003°01'1 2.2
2018-Feb-15 07:30N 53°27' W 003°03'510.8
2018-Feb-15 07:00N 53°32' W 003°08'612.0
2018-Feb-15 06:30N 53°31' W 003°18'2 3.7
2018-Feb-15 06:00N 53°33' W 003°21'1 2.4
2018-Feb-15 05:30N 53°31' W 003°21'510.0
2018-Feb-15 05:00N 53°33' W 003°29'3 5.1
2018-Feb-15 04:30N 53°31' W 003°29'510.6
2018-Feb-15 04:00N 53°31' W 003°38'510.3
2018-Feb-15 03:30N 53°31' W 003°47'510.0
2018-Feb-15 03:00N 53°31' W 003°55'65 9.5
2018-Feb-14 20:08N 52°45' W 005°13'214.5
2018-Feb-14 20:00N 52°44' W 005°14'2715.3
2018-Feb-14 18:13N 52°18' W 005°29'416.0
2018-Feb-14 17:59N 52°14' W 005°31'815.5
2018-Feb-14 17:28N 52°07' W 005°36'715.0
2018-Feb-14 17:00N 52°00' W 005°40'8013.7
2018-Feb-14 11:09N 50°40' W 005°53'214.1
2018-Feb-14 11:00N 50°38' W 005°53'914.9
2018-Feb-14 10:26N 50°30' W 005°53'715.0
2018-Feb-14 10:00N 50°23' W 005°53'715.0
2018-Feb-14 09:30N 50°16' W 005°54'814.5
2018-Feb-14 08:56N 50°08' W 005°54'614.2
2018-Feb-14 08:30N 50°01' W 005°54'38813.8
2018-Feb-13 04:21N 43°48' W 003°20'715.1
2018-Feb-13 03:55N 43°42' W 003°17'615.1
2018-Feb-13 03:30N 43°36' W 003°14'815.2
2018-Feb-13 03:00N 43°29' W 003°09'714.4
2018-Feb-13 02:31N 43°23' W 003°05'2 4.6
2018-Feb-13 02:00N 43°21' W 003°03'0 0.0
2018-Feb-13 01:30N 43°21' W 003°03'0 0.0
2018-Feb-13 01:00N 43°21' W 003°03'0 0.0
2018-Feb-13 00:27N 43°21' W 003°03'0 0.0
2018-Feb-13 00:00N 43°21' W 003°03'0 0.0
2018-Feb-12 23:27N 43°21' W 003°03'0 0.0
2018-Feb-12 23:00N 43°21' W 003°03'0 0.0
2018-Feb-12 22:30N 43°21' W 003°03'0 0.0
2018-Feb-12 22:00N 43°21' W 003°03'0 0.0
2018-Feb-12 21:30N 43°21' W 003°03'0 0.0
2018-Feb-12 20:57N 43°21' W 003°03'0 0.0
2018-Feb-12 20:30N 43°21' W 003°03'0 0.0
2018-Feb-12 20:00N 43°21' W 003°03'0 0.0
2018-Feb-12 19:30N 43°21' W 003°03'0 0.0
2018-Feb-12 19:00N 43°21' W 003°03'0 0.0
2018-Feb-12 18:27N 43°21' W 003°03'0 0.0
2018-Feb-12 18:00N 43°21' W 003°03'0 0.0
2018-Feb-12 17:30N 43°21' W 003°03'0 0.0
2018-Feb-12 17:00N 43°21' W 003°03'0 0.0
2018-Feb-12 16:30N 43°21' W 003°03'0 0.0
2018-Feb-12 16:00N 43°21' W 003°03'0 0.0
2018-Feb-12 15:18N 43°21' W 003°03'0 0.0
2018-Feb-12 15:00N 43°21' W 003°03'0 0.0
2018-Feb-12 14:30N 43°21' W 003°03'0 0.0
2018-Feb-12 13:59N 43°21' W 003°03'0 0.0
2018-Feb-12 13:29N 43°21' W 003°03'0 0.0
2018-Feb-12 12:59N 43°21' W 003°03'0 0.0
2018-Feb-12 12:31N 43°21' W 003°03'2 4.2
2018-Feb-12 12:00N 43°22' W 003°04'714.0
2018-Feb-12 11:30N 43°29' W 003°08'815.1
2018-Feb-12 11:00N 43°36' W 003°12'814.7
2018-Feb-12 10:27N 43°43' W 003°17'27815.2
2018-Feb-11 16:10N 47°58' W 005°53'515.7
2018-Feb-11 15:51N 48°03' W 005°56'142 9.3
2018-Feb-11 00:33N 50°25' W 005°52'1 8.7
2018-Feb-11 00:27N 50°25' W 005°51'6 9.3
2018-Feb-10 23:45N 50°29' W 005°43'4 9.2
2018-Feb-10 23:16N 50°32' W 005°37'4 9.2
2018-Feb-10 22:48N 50°35' W 005°32'3 9.8
2018-Feb-10 22:30N 50°37' W 005°29'612.4
2018-Feb-10 22:00N 50°41' W 005°21'612.3
2018-Feb-10 21:30N 50°45' W 005°14'612.7
2018-Feb-10 21:00N 50°49' W 005°06'713.1
2018-Feb-10 20:30N 50°53' W 004°59'713.3
2018-Feb-10 20:00N 50°58' W 004°51'713.6
2018-Feb-10 19:30N 51°02' W 004°43'713.9
2018-Feb-10 19:00N 51°07' W 004°35'714.4
2018-Feb-10 18:30N 51°12' W 004°26'715.2
2018-Feb-10 18:00N 51°17' W 004°17'815.7
2018-Feb-10 17:30N 51°19' W 004°05'915.9
2018-Feb-10 16:57N 51°20' W 003°51'816.2
2018-Feb-10 16:28N 51°20' W 003°38'916.3
2018-Feb-10 15:53N 51°21' W 003°23'615.3
2018-Feb-10 15:30N 51°22' W 003°14'611.3
2018-Feb-10 15:00N 51°24' W 003°06'612.3
2018-Feb-10 14:30N 51°27' W 002°57'612.1
2018-Feb-10 14:00N 51°30' W 002°48'3 6.3
2018-Feb-10 13:28N 51°30' W 002°43'0 0.8
2018-Feb-10 12:58N 51°31' W 002°42'0 0.0
2018-Feb-10 12:28N 51°31' W 002°42'0 0.0
2018-Feb-10 11:58N 51°31' W 002°42'0 0.0
2018-Feb-10 11:28N 51°31' W 002°42'0 0.0
2018-Feb-10 10:58N 51°31' W 002°42'0 0.0
2018-Feb-10 10:28N 51°31' W 002°42'0 0.0
2018-Feb-10 09:58N 51°31' W 002°42'0 0.0
2018-Feb-10 09:28N 51°31' W 002°42'0 0.0
2018-Feb-10 08:58N 51°31' W 002°42'0 0.0
2018-Feb-10 08:28N 51°31' W 002°42'0 0.0
2018-Feb-10 07:58N 51°31' W 002°42'0 0.0
2018-Feb-10 07:28N 51°31' W 002°42'0 0.0
2018-Feb-10 06:58N 51°31' W 002°42'0 0.0
2018-Feb-10 06:28N 51°31' W 002°42'0 0.0
2018-Feb-10 05:58N 51°31' W 002°42'0 0.0
2018-Feb-10 05:28N 51°31' W 002°42'0 0.0
2018-Feb-10 04:58N 51°31' W 002°42'0 0.0
2018-Feb-10 04:28N 51°31' W 002°42'0 0.0
2018-Feb-10 03:58N 51°31' W 002°42'0 0.0
2018-Feb-10 03:28N 51°31' W 002°42'0 0.0
2018-Feb-10 02:58N 51°31' W 002°42'0 0.0
2018-Feb-10 02:28N 51°31' W 002°42'0 0.0
2018-Feb-10 01:58N 51°31' W 002°42'0 0.0
2018-Feb-10 01:28N 51°31' W 002°42'0 0.9
2018-Feb-10 00:58N 51°30' W 002°43'0 0.8
2018-Feb-10 00:28N 51°31' W 002°43'510.1
2018-Feb-10 00:00N 51°29' W 002°50'714.1
2018-Feb-09 23:30N 51°26' W 003°01'714.0
2018-Feb-09 23:00N 51°21' W 003°09'314.1
2018-Feb-09 22:46N 51°21' W 003°15'6710.7
2018-Feb-09 16:31N 51°30' W 005°01'713.5
2018-Feb-09 16:00N 51°32' W 005°12'140 4.6
2018-Feb-08 09:30N 53°27' W 003°01'9011.1
2018-Feb-08 01:24N 52°46' W 005°14'717.6
2018-Feb-08 00:59N 52°39' W 005°18'  
Track history (hours):
 
Tides and Currents Weather Stations Pressure Air Temp Water Temp Dewpoint Dewpoint Depression Visibility Wind Speed Wind Dir Waves Ship Positions

X_preSS Matterhorn

Last reported at 2018-Feb-17 19:30 UTC. Time now 2018-Feb-17 19:52 UTC.
Position N 51°26' W 002°59'.

Length 134 m; draft 5.9 m.

Type: Cargo ship. MMSI: 244597000.

Date/timePositionNaut miles runAvg speedWind from/ knotsBaromVisibWave heightAir tempDewpointWater temp
2018-Feb-17 19:30N 51°26' W 002°59'611.9
2018-Feb-17 19:00N 51°28' W 002°50'5 9.7
2018-Feb-17 18:30N 51°30' W 002°43'0 0.8
2018-Feb-17 17:58N 51°30' W 002°42'0 0.6
2018-Feb-17 17:28N 51°31' W 002°42'0 0.0
2018-Feb-17 16:58N 51°31' W 002°42'0 0.0
2018-Feb-17 16:31N 51°31' W 002°42'0 0.0
2018-Feb-17 16:01N 51°31' W 002°42'0 0.0
2018-Feb-17 15:30N 51°31' W 002°42'0 0.0
2018-Feb-17 15:00N 51°31' W 002°42'0 0.0
2018-Feb-17 14:30N 51°31' W 002°42'0 0.0
2018-Feb-17 14:00N 51°31' W 002°42'0 0.0
2018-Feb-17 13:30N 51°31' W 002°42'0 0.0
2018-Feb-17 13:00N 51°31' W 002°42'0 0.0
2018-Feb-17 12:30N 51°31' W 002°42'0 0.0
2018-Feb-17 12:00N 51°31' W 002°42'0 0.0
2018-Feb-17 11:30N 51°31' W 002°42'0 0.0
2018-Feb-17 11:00N 51°31' W 002°42'0 0.0
2018-Feb-17 10:30N 51°31' W 002°42'0 0.0
2018-Feb-17 10:00N 51°31' W 002°42'0 0.0
2018-Feb-17 09:30N 51°31' W 002°42'0 0.0
2018-Feb-17 09:00N 51°31' W 002°42'0 0.0
2018-Feb-17 08:30N 51°31' W 002°42'0 0.0
2018-Feb-17 08:00N 51°31' W 002°42'0 0.9
2018-Feb-17 07:30N 51°30' W 002°43'0 0.9
2018-Feb-17 07:00N 51°31' W 002°43'612.0
2018-Feb-17 06:30N 51°28' W 002°52'815.4
2018-Feb-17 06:00N 51°24' W 003°03'815.5
2018-Feb-17 05:30N 51°21' W 003°14'22 2.4
2018-Feb-16 20:23N 51°20' W 003°49'410.1
2018-Feb-16 19:57N 51°21' W 003°55'510.8
2018-Feb-16 19:30N 51°22' W 004°03'1512.7
2018-Feb-16 18:21N 51°25' W 004°26'713.8
2018-Feb-16 17:50N 51°27' W 004°37'515.6
2018-Feb-16 17:30N 51°28' W 004°45'815.9
2018-Feb-16 16:59N 51°29' W 004°58'715.8
2018-Feb-16 16:30N 51°31' W 005°10'815.8
2018-Feb-16 16:01N 51°33' W 005°22'815.9
2018-Feb-16 15:30N 51°35' W 005°35'3711.9
2018-Feb-16 12:25N 52°11' W 005°42'614.8
2018-Feb-16 12:00N 52°17' W 005°38'814.4
2018-Feb-16 11:28N 52°24' W 005°34'1813.6
2018-Feb-16 10:09N 52°41' W 005°23'212.3
2018-Feb-16 09:58N 52°43' W 005°22'7010.6
2018-Feb-16 03:17N 53°31' W 003°57'714.8
2018-Feb-16 02:51N 53°33' W 003°46'615.2
2018-Feb-16 02:27N 53°33' W 003°36'715.0
2018-Feb-16 02:00N 53°32' W 003°25'714.5
2018-Feb-16 01:30N 53°31' W 003°13'612.0
2018-Feb-16 01:00N 53°29' W 003°04'2 4.4
2018-Feb-16 00:30N 53°27' W 003°01'0 0.8
2018-Feb-16 00:00N 53°27' W 003°01'0 0.4
2018-Feb-15 23:20N 53°28' W 003°01'0 0.0
2018-Feb-15 22:59N 53°28' W 003°01'0 0.0
2018-Feb-15 22:29N 53°28' W 003°01'0 0.0
2018-Feb-15 21:59N 53°28' W 003°01'0 0.0
2018-Feb-15 21:29N 53°28' W 003°01'0 0.0
2018-Feb-15 20:59N 53°28' W 003°01'0 0.0
2018-Feb-15 20:29N 53°28' W 003°01'0 0.0
2018-Feb-15 19:59N 53°28' W 003°01'0 0.0
2018-Feb-15 19:26N 53°28' W 003°01'0 0.0
2018-Feb-15 18:59N 53°28' W 003°01'0 0.0
2018-Feb-15 18:29N 53°28' W 003°01'0 0.0
2018-Feb-15 17:56N 53°28' W 003°01'0 0.0
2018-Feb-15 17:23N 53°28' W 003°01'0 0.0
2018-Feb-15 16:59N 53°28' W 003°01'0 0.0
2018-Feb-15 16:29N 53°28' W 003°01'0 0.0
2018-Feb-15 15:59N 53°28' W 003°01'0 0.0
2018-Feb-15 15:29N 53°28' W 003°01'0 0.0
2018-Feb-15 14:59N 53°28' W 003°01'0 0.0
2018-Feb-15 14:29N 53°28' W 003°01'0 0.0
2018-Feb-15 13:59N 53°28' W 003°01'0 0.0
2018-Feb-15 13:29N 53°28' W 003°01'0 0.0
2018-Feb-15 12:59N 53°28' W 003°01'0 0.0
2018-Feb-15 12:29N 53°28' W 003°01'0 0.0
2018-Feb-15 11:59N 53°28' W 003°01'0 0.0
2018-Feb-15 11:26N 53°28' W 003°01'0 0.0
2018-Feb-15 10:59N 53°28' W 003°01'0 0.0
2018-Feb-15 10:29N 53°28' W 003°01'0 0.0
2018-Feb-15 09:59N 53°28' W 003°01'0 0.0
2018-Feb-15 09:28N 53°28' W 003°01'0 0.0
2018-Feb-15 09:00N 53°28' W 003°01'1 1.3
2018-Feb-15 08:30N 53°27' W 003°01'0 0.3
2018-Feb-15 07:59N 53°27' W 003°01'1 2.2
2018-Feb-15 07:30N 53°27' W 003°03'510.8
2018-Feb-15 07:00N 53°32' W 003°08'612.0
2018-Feb-15 06:30N 53°31' W 003°18'2 3.7
2018-Feb-15 06:00N 53°33' W 003°21'1 2.4
2018-Feb-15 05:30N 53°31' W 003°21'510.0
2018-Feb-15 05:00N 53°33' W 003°29'3 5.1
2018-Feb-15 04:30N 53°31' W 003°29'510.6
2018-Feb-15 04:00N 53°31' W 003°38'510.3
2018-Feb-15 03:30N 53°31' W 003°47'510.0
2018-Feb-15 03:00N 53°31' W 003°55'65 9.5
2018-Feb-14 20:08N 52°45' W 005°13'214.5
2018-Feb-14 20:00N 52°44' W 005°14'2715.3
2018-Feb-14 18:13N 52°18' W 005°29'416.0
2018-Feb-14 17:59N 52°14' W 005°31'815.5
2018-Feb-14 17:28N 52°07' W 005°36'715.0
2018-Feb-14 17:00N 52°00' W 005°40'8013.7
2018-Feb-14 11:09N 50°40' W 005°53'214.1
2018-Feb-14 11:00N 50°38' W 005°53'914.9
2018-Feb-14 10:26N 50°30' W 005°53'715.0
2018-Feb-14 10:00N 50°23' W 005°53'715.0
2018-Feb-14 09:30N 50°16' W 005°54'814.5
2018-Feb-14 08:56N 50°08' W 005°54'614.2
2018-Feb-14 08:30N 50°01' W 005°54'38813.8
2018-Feb-13 04:21N 43°48' W 003°20'715.1
2018-Feb-13 03:55N 43°42' W 003°17'615.1
2018-Feb-13 03:30N 43°36' W 003°14'815.2
2018-Feb-13 03:00N 43°29' W 003°09'714.4
2018-Feb-13 02:31N 43°23' W 003°05'2 4.6
2018-Feb-13 02:00N 43°21' W 003°03'0 0.0
2018-Feb-13 01:30N 43°21' W 003°03'0 0.0
2018-Feb-13 01:00N 43°21' W 003°03'0 0.0
2018-Feb-13 00:27N 43°21' W 003°03'0 0.0
2018-Feb-13 00:00N 43°21' W 003°03'0 0.0
2018-Feb-12 23:27N 43°21' W 003°03'0 0.0
2018-Feb-12 23:00N 43°21' W 003°03'0 0.0
2018-Feb-12 22:30N 43°21' W 003°03'0 0.0
2018-Feb-12 22:00N 43°21' W 003°03'0 0.0
2018-Feb-12 21:30N 43°21' W 003°03'0 0.0
2018-Feb-12 20:57N 43°21' W 003°03'0 0.0
2018-Feb-12 20:30N 43°21' W 003°03'0 0.0
2018-Feb-12 20:00N 43°21' W 003°03'0 0.0
2018-Feb-12 19:30N 43°21' W 003°03'0 0.0
2018-Feb-12 19:00N 43°21' W 003°03'0 0.0
2018-Feb-12 18:27N 43°21' W 003°03'0 0.0
2018-Feb-12 18:00N 43°21' W 003°03'0 0.0
2018-Feb-12 17:30N 43°21' W 003°03'0 0.0
2018-Feb-12 17:00N 43°21' W 003°03'0 0.0
2018-Feb-12 16:30N 43°21' W 003°03'0 0.0
2018-Feb-12 16:00N 43°21' W 003°03'0 0.0
2018-Feb-12 15:18N 43°21' W 003°03'0 0.0
2018-Feb-12 15:00N 43°21' W 003°03'0 0.0
2018-Feb-12 14:30N 43°21' W 003°03'0 0.0
2018-Feb-12 13:59N 43°21' W 003°03'0 0.0
2018-Feb-12 13:29N 43°21' W 003°03'0 0.0
2018-Feb-12 12:59N 43°21' W 003°03'0 0.0
2018-Feb-12 12:31N 43°21' W 003°03'2 4.2
2018-Feb-12 12:00N 43°22' W 003°04'714.0
2018-Feb-12 11:30N 43°29' W 003°08'815.1
2018-Feb-12 11:00N 43°36' W 003°12'814.7
2018-Feb-12 10:27N 43°43' W 003°17'27815.2
2018-Feb-11 16:10N 47°58' W 005°53'515.7
2018-Feb-11 15:51N 48°03' W 005°56'142 9.3
2018-Feb-11 00:33N 50°25' W 005°52'1 8.7
2018-Feb-11 00:27N 50°25' W 005°51'6 9.3
2018-Feb-10 23:45N 50°29' W 005°43'4 9.2
2018-Feb-10 23:16N 50°32' W 005°37'4 9.2
2018-Feb-10 22:48N 50°35' W 005°32'3 9.8
2018-Feb-10 22:30N 50°37' W 005°29'612.4
2018-Feb-10 22:00N 50°41' W 005°21'612.3
2018-Feb-10 21:30N 50°45' W 005°14'612.7
2018-Feb-10 21:00N 50°49' W 005°06'713.1
2018-Feb-10 20:30N 50°53' W 004°59'713.3
2018-Feb-10 20:00N 50°58' W 004°51'713.6
2018-Feb-10 19:30N 51°02' W 004°43'713.9
2018-Feb-10 19:00N 51°07' W 004°35'714.4
2018-Feb-10 18:30N 51°12' W 004°26'715.2
2018-Feb-10 18:00N 51°17' W 004°17'815.7
2018-Feb-10 17:30N 51°19' W 004°05'915.9
2018-Feb-10 16:57N 51°20' W 003°51'816.2
2018-Feb-10 16:28N 51°20' W 003°38'916.3
2018-Feb-10 15:53N 51°21' W 003°23'615.3
2018-Feb-10 15:30N 51°22' W 003°14'611.3
2018-Feb-10 15:00N 51°24' W 003°06'612.3
2018-Feb-10 14:30N 51°27' W 002°57'612.1
2018-Feb-10 14:00N 51°30' W 002°48'3 6.3
2018-Feb-10 13:28N 51°30' W 002°43'0 0.8
2018-Feb-10 12:58N 51°31' W 002°42'0 0.0
2018-Feb-10 12:28N 51°31' W 002°42'0 0.0
2018-Feb-10 11:58N 51°31' W 002°42'0 0.0
2018-Feb-10 11:28N 51°31' W 002°42'0 0.0
2018-Feb-10 10:58N 51°31' W 002°42'0 0.0
2018-Feb-10 10:28N 51°31' W 002°42'0 0.0
2018-Feb-10 09:58N 51°31' W 002°42'0 0.0
2018-Feb-10 09:28N 51°31' W 002°42'0 0.0
2018-Feb-10 08:58N 51°31' W 002°42'0 0.0
2018-Feb-10 08:28N 51°31' W 002°42'0 0.0
2018-Feb-10 07:58N 51°31' W 002°42'0 0.0
2018-Feb-10 07:28N 51°31' W 002°42'0 0.0
2018-Feb-10 06:58N 51°31' W 002°42'0 0.0
2018-Feb-10 06:28N 51°31' W 002°42'0 0.0
2018-Feb-10 05:58N 51°31' W 002°42'0 0.0
2018-Feb-10 05:28N 51°31' W 002°42'0 0.0
2018-Feb-10 04:58N 51°31' W 002°42'0 0.0
2018-Feb-10 04:28N 51°31' W 002°42'0 0.0
2018-Feb-10 03:58N 51°31' W 002°42'0 0.0
2018-Feb-10 03:28N 51°31' W 002°42'0 0.0
2018-Feb-10 02:58N 51°31' W 002°42'0 0.0
2018-Feb-10 02:28N 51°31' W 002°42'0 0.0
2018-Feb-10 01:58N 51°31' W 002°42'0 0.0
2018-Feb-10 01:28N 51°31' W 002°42'0 0.9
2018-Feb-10 00:58N 51°30' W 002°43'0 0.8
2018-Feb-10 00:28N 51°31' W 002°43'510.1
2018-Feb-10 00:00N 51°29' W 002°50'714.1
2018-Feb-09 23:30N 51°26' W 003°01'714.0
2018-Feb-09 23:00N 51°21' W 003°09'314.1
2018-Feb-09 22:46N 51°21' W 003°15'6710.7
2018-Feb-09 16:31N 51°30' W 005°01'713.5
2018-Feb-09 16:00N 51°32' W 005°12'140 4.6
2018-Feb-08 09:30N 53°27' W 003°01'9011.1
2018-Feb-08 01:24N 52°46' W 005°14'717.6
2018-Feb-08 00:59N 52°39' W 005°18'  

Dump ship's entire track history